sensor_id;sensor_type;location;lat;lon;timestamp;pressure;altitude;pressure_sealevel;temperature;humidity
23616;BME280;11985;49.404;7.734;2022-10-16T00:01:52;97073.03;;;13.60;100.00
23616;BME280;11985;49.404;7.734;2022-10-16T00:03:55;97083.63;;;13.60;100.00
23616;BME280;11985;49.404;7.734;2022-10-16T00:05:59;97089.72;;;13.61;100.00
23616;BME280;11985;49.404;7.734;2022-10-16T00:08:01;97082.00;;;13.59;100.00
23616;BME280;11985;49.404;7.734;2022-10-16T00:10:02;97083.38;;;13.62;100.00
23616;BME280;11985;49.404;7.734;2022-10-16T00:12:05;97099.03;;;13.63;100.00
23616;BME280;11985;49.404;7.734;2022-10-16T00:14:10;97095.00;;;13.61;100.00
23616;BME280;11985;49.404;7.734;2022-10-16T00:16:13;97093.38;;;13.60;100.00
23616;BME280;11985;49.404;7.734;2022-10-16T00:18:16;97085.22;;;13.61;100.00
23616;BME280;11985;49.404;7.734;2022-10-16T00:20:18;97101.91;;;13.62;100.00
23616;BME280;11985;49.404;7.734;2022-10-16T00:22:19;97092.69;;;13.64;100.00
23616;BME280;11985;49.404;7.734;2022-10-16T00:24:21;97089.25;;;13.64;100.00
23616;BME280;11985;49.404;7.734;2022-10-16T00:26:23;97095.94;;;13.66;100.00
23616;BME280;11985;49.404;7.734;2022-10-16T00:28:25;97093.28;;;13.66;100.00
23616;BME280;11985;49.404;7.734;2022-10-16T00:30:27;97097.31;;;13.69;100.00
23616;BME280;11985;49.404;7.734;2022-10-16T00:32:29;97085.91;;;13.68;100.00
23616;BME280;11985;49.404;7.734;2022-10-16T00:34:32;97081.19;;;13.70;100.00
23616;BME280;11985;49.404;7.734;2022-10-16T00:36:35;97087.53;;;13.69;100.00
23616;BME280;11985;49.404;7.734;2022-10-16T00:38:37;97086.72;;;13.69;100.00
23616;BME280;11985;49.404;7.734;2022-10-16T00:40:40;97081.44;;;13.69;100.00
23616;BME280;11985;49.404;7.734;2022-10-16T00:42:43;97083.28;;;13.68;100.00
23616;BME280;11985;49.404;7.734;2022-10-16T00:44:48;97076.94;;;13.69;100.00
23616;BME280;11985;49.404;7.734;2022-10-16T00:46:53;97075.34;;;13.68;100.00
23616;BME280;11985;49.404;7.734;2022-10-16T00:48:58;97082.22;;;13.69;100.00
23616;BME280;11985;49.404;7.734;2022-10-16T00:51:06;97078.53;;;13.70;100.00
23616;BME280;11985;49.404;7.734;2022-10-16T00:53:08;97078.78;;;13.69;100.00
23616;BME280;11985;49.404;7.734;2022-10-16T00:55:11;97080.19;;;13.71;100.00
23616;BME280;11985;49.404;7.734;2022-10-16T00:57:13;97070.59;;;13.70;100.00
23616;BME280;11985;49.404;7.734;2022-10-16T00:59:18;97072.81;;;13.73;100.00
23616;BME280;11985;49.404;7.734;2022-10-16T01:01:20;97074.41;;;13.74;100.00
23616;BME280;11985;49.404;7.734;2022-10-16T01:03:24;97076.00;;;13.76;100.00
23616;BME280;11985;49.404;7.734;2022-10-16T01:05:32;97079.69;;;13.74;100.00
23616;BME280;11985;49.404;7.734;2022-10-16T01:07:43;97078.91;;;13.74;100.00
23616;BME280;11985;49.404;7.734;2022-10-16T01:09:56;97088.22;;;13.77;100.00
23616;BME280;11985;49.404;7.734;2022-10-16T01:12:06;97093.50;;;13.77;100.00
23616;BME280;11985;49.404;7.734;2022-10-16T01:14:14;97095.13;;;13.78;100.00
23616;BME280;11985;49.404;7.734;2022-10-16T01:16:28;97107.34;;;13.79;100.00
23616;BME280;11985;49.404;7.734;2022-10-16T01:18:34;97100.75;;;13.81;100.00
23616;BME280;11985;49.404;7.734;2022-10-16T01:20:42;97095.47;;;13.81;100.00
23616;BME280;11985;49.404;7.734;2022-10-16T01:23:01;97095.25;;;13.83;100.00
23616;BME280;11985;49.404;7.734;2022-10-16T01:25:09;97103.19;;;13.83;100.00
23616;BME280;11985;49.404;7.734;2022-10-16T01:27:16;97110.53;;;13.81;100.00
23616;BME280;11985;49.404;7.734;2022-10-16T01:29:23;97105.25;;;13.81;100.00
23616;BME280;11985;49.404;7.734;2022-10-16T01:31:29;97102.03;;;13.79;100.00
23616;BME280;11985;49.404;7.734;2022-10-16T01:33:36;97096.16;;;13.77;100.00
23616;BME280;11985;49.404;7.734;2022-10-16T01:35:43;97105.94;;;13.76;100.00
23616;BME280;11985;49.404;7.734;2022-10-16T01:37:50;97103.75;;;13.73;100.00
23616;BME280;11985;49.404;7.734;2022-10-16T01:39:55;97106.16;;;13.74;100.00
23616;BME280;11985;49.404;7.734;2022-10-16T01:42:03;97113.06;;;13.76;100.00
23616;BME280;11985;49.404;7.734;2022-10-16T01:44:10;97098.78;;;13.77;100.00
23616;BME280;11985;49.404;7.734;2022-10-16T01:46:16;97100.44;;;13.78;100.00
23616;BME280;11985;49.404;7.734;2022-10-16T01:48:21;97108.38;;;13.78;100.00
23616;BME280;11985;49.404;7.734;2022-10-16T01:50:24;97101.00;;;13.80;100.00
23616;BME280;11985;49.404;7.734;2022-10-16T01:52:29;97094.34;;;13.77;100.00
23616;BME280;11985;49.404;7.734;2022-10-16T01:54:33;97094.09;;;13.79;100.00
23616;BME280;11985;49.404;7.734;2022-10-16T01:56:37;97098.78;;;13.77;100.00
23616;BME280;11985;49.404;7.734;2022-10-16T01:58:44;97096.75;;;13.79;100.00
23616;BME280;11985;49.404;7.734;2022-10-16T02:00:48;97108.81;;;13.74;100.00
23616;BME280;11985;49.404;7.734;2022-10-16T02:02:53;97108.25;;;13.72;100.00
23616;BME280;11985;49.404;7.734;2022-10-16T02:05:01;97102.97;;;13.72;100.00
23616;BME280;11985;49.404;7.734;2022-10-16T02:07:06;97106.16;;;13.74;100.00
23616;BME280;11985;49.404;7.734;2022-10-16T02:09:08;97111.47;;;13.74;100.00
23616;BME280;11985;49.404;7.734;2022-10-16T02:11:10;97110.91;;;13.72;100.00
23616;BME280;11985;49.404;7.734;2022-10-16T02:13:16;97114.00;;;13.69;100.00
23616;BME280;11985;49.404;7.734;2022-10-16T02:15:19;97102.59;;;13.69;100.00
23616;BME280;11985;49.404;7.734;2022-10-16T02:17:23;97108.94;;;13.68;100.00
23616;BME280;11985;49.404;7.734;2022-10-16T02:19:24;97110.78;;;13.67;100.00
23616;BME280;11985;49.404;7.734;2022-10-16T02:21:29;97112.38;;;13.68;100.00
23616;BME280;11985;49.404;7.734;2022-10-16T02:23:40;97111.22;;;13.64;100.00
23616;BME280;11985;49.404;7.734;2022-10-16T02:25:46;97132.88;;;13.61;100.00
23616;BME280;11985;49.404;7.734;2022-10-16T02:27:54;97118.59;;;13.62;100.00
23616;BME280;11985;49.404;7.734;2022-10-16T02:30:00;97124.13;;;13.61;100.00
23616;BME280;11985;49.404;7.734;2022-10-16T02:32:09;97127.44;;;13.56;100.00
23616;BME280;11985;49.404;7.734;2022-10-16T02:34:14;97132.75;;;13.56;100.00
23616;BME280;11985;49.404;7.734;2022-10-16T02:36:18;97133.19;;;13.53;100.00
23616;BME280;11985;49.404;7.734;2022-10-16T02:38:21;97125.25;;;13.53;100.00
23616;BME280;11985;49.404;7.734;2022-10-16T02:40:24;97121.00;;;13.52;100.00
23616;BME280;11985;49.404;7.734;2022-10-16T02:42:33;97114.66;;;13.53;100.00
23616;BME280;11985;49.404;7.734;2022-10-16T02:44:34;97111.78;;;13.55;100.00
23616;BME280;11985;49.404;7.734;2022-10-16T02:46:38;97117.91;;;13.55;100.00
23616;BME280;11985;49.404;7.734;2022-10-16T02:48:40;97105.13;;;13.52;100.00
23616;BME280;11985;49.404;7.734;2022-10-16T02:50:43;97118.34;;;13.52;100.00
23616;BME280;11985;49.404;7.734;2022-10-16T02:52:44;97121.00;;;13.52;100.00
23616;BME280;11985;49.404;7.734;2022-10-16T02:54:46;97127.31;;;13.51;100.00
23616;BME280;11985;49.404;7.734;2022-10-16T02:56:48;97125.91;;;13.48;100.00
23616;BME280;11985;49.404;7.734;2022-10-16T02:58:49;97130.88;;;13.45;100.00
23616;BME280;11985;49.404;7.734;2022-10-16T03:00:51;97133.38;;;13.40;100.00
23616;BME280;11985;49.404;7.734;2022-10-16T03:02:52;97129.94;;;13.39;100.00
23616;BME280;11985;49.404;7.734;2022-10-16T03:04:54;97118.56;;;13.39;100.00
23616;BME280;11985;49.404;7.734;2022-10-16T03:06:57;97127.50;;;13.38;100.00
23616;BME280;11985;49.404;7.734;2022-10-16T03:08:58;97123.25;;;13.37;100.00
23616;BME280;11985;49.404;7.734;2022-10-16T03:11:00;97128.53;;;13.37;100.00
23616;BME280;11985;49.404;7.734;2022-10-16T03:13:01;97123.72;;;13.34;100.00
23616;BME280;11985;49.404;7.734;2022-10-16T03:15:04;97124.16;;;13.31;100.00
23616;BME280;11985;49.404;7.734;2022-10-16T03:17:09;97126.38;;;13.34;100.00
23616;BME280;11985;49.404;7.734;2022-10-16T03:19:11;97131.75;;;13.27;100.00
23616;BME280;11985;49.404;7.734;2022-10-16T03:21:12;97134.59;;;13.26;100.00
23616;BME280;11985;49.404;7.734;2022-10-16T03:23:15;97133.00;;;13.25;100.00
23616;BME280;11985;49.404;7.734;2022-10-16T03:25:17;97137.47;;;13.24;100.00
23616;BME280;11985;49.404;7.734;2022-10-16T03:27:18;97144.03;;;13.22;100.00
23616;BME280;11985;49.404;7.734;2022-10-16T03:29:20;97142.38;;;13.20;100.00
23616;BME280;11985;49.404;7.734;2022-10-16T03:31:23;97149.75;;;13.18;100.00
23616;BME280;11985;49.404;7.734;2022-10-16T03:33:25;97141.97;;;13.24;100.00
23616;BME280;11985;49.404;7.734;2022-10-16T03:35:27;97140.38;;;13.23;100.00
23616;BME280;11985;49.404;7.734;2022-10-16T03:37:29;97142.38;;;13.20;100.00
23616;BME280;11985;49.404;7.734;2022-10-16T03:39:32;97141.81;;;13.18;100.00
23616;BME280;11985;49.404;7.734;2022-10-16T03:41:33;97137.09;;;13.20;100.00
23616;BME280;11985;49.404;7.734;2022-10-16T03:43:36;97140.38;;;13.23;100.00
23616;BME280;11985;49.404;7.734;2022-10-16T03:45:37;97141.16;;;13.23;100.00
23616;BME280;11985;49.404;7.734;2022-10-16T03:47:40;97125.53;;;13.22;100.00
23616;BME280;11985;49.404;7.734;2022-10-16T03:49:42;97114.31;;;13.19;100.00
23616;BME280;11985;49.404;7.734;2022-10-16T03:51:43;97134.31;;;13.15;100.00
23616;BME280;11985;49.404;7.734;2022-10-16T03:53:45;97127.88;;;13.11;100.00
23616;BME280;11985;49.404;7.734;2022-10-16T03:55:48;97130.63;;;13.05;100.00
23616;BME280;11985;49.404;7.734;2022-10-16T03:57:50;97136.56;;;13.00;100.00
23616;BME280;11985;49.404;7.734;2022-10-16T03:59:51;97132.28;;;12.99;100.00
23616;BME280;11985;49.404;7.734;2022-10-16T04:01:53;97121.16;;;12.97;100.00
23616;BME280;11985;49.404;7.734;2022-10-16T04:03:54;97111.03;;;12.94;100.00
23616;BME280;11985;49.404;7.734;2022-10-16T04:05:56;97122.63;;;12.93;100.00
23616;BME280;11985;49.404;7.734;2022-10-16T04:07:57;97130.41;;;12.88;100.00
23616;BME280;11985;49.404;7.734;2022-10-16T04:09:59;97135.59;;;12.83;100.00
23616;BME280;11985;49.404;7.734;2022-10-16T04:12:02;97132.34;;;12.81;100.00
23616;BME280;11985;49.404;7.734;2022-10-16T04:14:05;97142.91;;;12.81;100.00
23616;BME280;11985;49.404;7.734;2022-10-16T04:16:07;97142.56;;;12.77;100.00
23616;BME280;11985;49.404;7.734;2022-10-16T04:18:08;97149.66;;;12.77;100.00
23616;BME280;11985;49.404;7.734;2022-10-16T04:20:10;97162.88;;;12.77;100.00
23616;BME280;11985;49.404;7.734;2022-10-16T04:22:12;97160.84;;;12.79;100.00
23616;BME280;11985;49.404;7.734;2022-10-16T04:24:13;97149.81;;;12.82;100.00
23616;BME280;11985;49.404;7.734;2022-10-16T04:26:15;97147.75;;;12.84;100.00
23616;BME280;11985;49.404;7.734;2022-10-16T04:28:18;97140.78;;;12.89;100.00
23616;BME280;11985;49.404;7.734;2022-10-16T04:30:20;97132.63;;;12.91;100.00
23616;BME280;11985;49.404;7.734;2022-10-16T04:32:22;97123.31;;;12.88;100.00
23616;BME280;11985;49.404;7.734;2022-10-16T04:34:25;97131.91;;;12.84;100.00
23616;BME280;11985;49.404;7.734;2022-10-16T04:36:27;97123.38;;;12.82;100.00
23616;BME280;11985;49.404;7.734;2022-10-16T04:38:28;97128.47;;;12.83;100.00
23616;BME280;11985;49.404;7.734;2022-10-16T04:40:30;97122.94;;;12.85;100.00
23616;BME280;11985;49.404;7.734;2022-10-16T04:42:38;97116.31;;;12.94;100.00
23616;BME280;11985;49.404;7.734;2022-10-16T04:44:42;97119.06;;;12.99;100.00
23616;BME280;11985;49.404;7.734;2022-10-16T04:46:44;97127.13;;;13.04;100.00
23616;BME280;11985;49.404;7.734;2022-10-16T04:48:46;97133.03;;;13.06;100.00
23616;BME280;11985;49.404;7.734;2022-10-16T04:50:48;97140.28;;;13.11;100.00
23616;BME280;11985;49.404;7.734;2022-10-16T04:52:50;97136.94;;;13.15;100.00
23616;BME280;11985;49.404;7.734;2022-10-16T04:54:51;97131.00;;;13.20;100.00
23616;BME280;11985;49.404;7.734;2022-10-16T04:56:54;97126.09;;;13.24;100.00
23616;BME280;11985;49.404;7.734;2022-10-16T04:58:56;97134.16;;;13.29;100.00
23616;BME280;11985;49.404;7.734;2022-10-16T05:00:59;97142.09;;;13.29;100.00
23616;BME280;11985;49.404;7.734;2022-10-16T05:03:00;97140.25;;;13.29;100.00
23616;BME280;11985;49.404;7.734;2022-10-16T05:05:08;97146.34;;;13.30;100.00
23616;BME280;11985;49.404;7.734;2022-10-16T05:07:10;97157.16;;;13.28;100.00
23616;BME280;11985;49.404;7.734;2022-10-16T05:09:12;97161.41;;;13.29;100.00
23616;BME280;11985;49.404;7.734;2022-10-16T05:11:13;97158.69;;;13.36;100.00
23616;BME280;11985;49.404;7.734;2022-10-16T05:13:15;97156.03;;;13.36;100.00
23616;BME280;11985;49.404;7.734;2022-10-16T05:15:16;97155.00;;;13.37;100.00
23616;BME280;11985;49.404;7.734;2022-10-16T05:17:20;97153.97;;;13.38;100.00
23616;BME280;11985;49.404;7.734;2022-10-16T05:19:22;97138.69;;;13.40;100.00
23616;BME280;11985;49.404;7.734;2022-10-16T05:21:25;97144.53;;;13.42;100.00
23616;BME280;11985;49.404;7.734;2022-10-16T05:23:26;97148.22;;;13.41;100.00
23616;BME280;11985;49.404;7.734;2022-10-16T05:25:28;97160.09;;;13.38;100.00
23616;BME280;11985;49.404;7.734;2022-10-16T05:27:29;97164.91;;;13.41;100.00
23616;BME280;11985;49.404;7.734;2022-10-16T05:29:31;97175.84;;;13.45;100.00
23616;BME280;11985;49.404;7.734;2022-10-16T05:31:33;97164.47;;;13.44;100.00
23616;BME280;11985;49.404;7.734;2022-10-16T05:33:36;97178.16;;;13.53;100.00
23616;BME280;11985;49.404;7.734;2022-10-16T05:35:37;97183.81;;;13.57;100.00
23616;BME280;11985;49.404;7.734;2022-10-16T05:37:40;97177.25;;;13.59;100.00
23616;BME280;11985;49.404;7.734;2022-10-16T05:39:42;97175.19;;;13.61;100.00
23616;BME280;11985;49.404;7.734;2022-10-16T05:41:45;97179.59;;;13.67;100.00
23616;BME280;11985;49.404;7.734;2022-10-16T05:43:47;97163.84;;;13.72;100.00
23616;BME280;11985;49.404;7.734;2022-10-16T05:45:55;97163.16;;;13.77;100.00
23616;BME280;11985;49.404;7.734;2022-10-16T05:47:57;97174.06;;;13.81;100.00
23616;BME280;11985;49.404;7.734;2022-10-16T05:50:00;97180.97;;;13.82;100.00
23616;BME280;11985;49.404;7.734;2022-10-16T05:52:02;97176.47;;;13.82;100.00
23616;BME280;11985;49.404;7.734;2022-10-16T05:54:04;97187.91;;;13.83;100.00
23616;BME280;11985;49.404;7.734;2022-10-16T05:56:06;97180.53;;;13.85;100.00
23616;BME280;11985;49.404;7.734;2022-10-16T05:58:09;97180.97;;;13.82;100.00
23616;BME280;11985;49.404;7.734;2022-10-16T06:00:13;97175.13;;;13.80;100.00
23616;BME280;11985;49.404;7.734;2022-10-16T06:02:15;97178.13;;;13.83;100.00
23616;BME280;11985;49.404;7.734;2022-10-16T06:04:16;97187.91;;;13.83;100.00
23616;BME280;11985;49.404;7.734;2022-10-16T06:06:21;97184.22;;;13.84;100.00
23616;BME280;11985;49.404;7.734;2022-10-16T06:08:24;97188.47;;;13.85;100.00
23616;BME280;11985;49.404;7.734;2022-10-16T06:10:25;97189.84;;;13.87;100.00
23616;BME280;11985;49.404;7.734;2022-10-16T06:12:29;97190.66;;;13.88;100.00
23616;BME280;11985;49.404;7.734;2022-10-16T06:14:31;97187.00;;;13.89;100.00
23616;BME280;11985;49.404;7.734;2022-10-16T06:16:33;97190.78;;;13.93;100.00
23616;BME280;11985;49.404;7.734;2022-10-16T06:18:35;97200.78;;;13.91;100.00
23616;BME280;11985;49.404;7.734;2022-10-16T06:20:37;97202.06;;;13.88;100.00
23616;BME280;11985;49.404;7.734;2022-10-16T06:22:42;97206.53;;;13.88;100.00
23616;BME280;11985;49.404;7.734;2022-10-16T06:24:43;97197.22;;;13.85;100.00
23616;BME280;11985;49.404;7.734;2022-10-16T06:26:46;97199.06;;;13.85;100.00
23616;BME280;11985;49.404;7.734;2022-10-16T06:28:48;97201.72;;;13.85;100.00
23616;BME280;11985;49.404;7.734;2022-10-16T06:30:58;97199.75;;;13.92;100.00
23616;BME280;11985;49.404;7.734;2022-10-16T06:33:00;97198.28;;;13.96;100.00
23616;BME280;11985;49.404;7.734;2022-10-16T06:35:02;97206.09;;;14.03;100.00
23616;BME280;11985;49.404;7.734;2022-10-16T06:37:03;97211.53;;;14.08;100.00
23616;BME280;11985;49.404;7.734;2022-10-16T06:39:06;97218.91;;;14.17;100.00
23616;BME280;11985;49.404;7.734;2022-10-16T06:41:11;97220.63;;;14.23;100.00
23616;BME280;11985;49.404;7.734;2022-10-16T06:43:13;97225.00;;;14.30;100.00
23616;BME280;11985;49.404;7.734;2022-10-16T06:45:15;97216.63;;;14.33;100.00
23616;BME280;11985;49.404;7.734;2022-10-16T06:47:16;97215.91;;;14.37;100.00
23616;BME280;11985;49.404;7.734;2022-10-16T06:49:18;97222.38;;;14.41;100.00
23616;BME280;11985;49.404;7.734;2022-10-16T06:51:23;97222.72;;;14.45;100.00
23616;BME280;11985;49.404;7.734;2022-10-16T06:53:27;97222.72;;;14.45;100.00
23616;BME280;11985;49.404;7.734;2022-10-16T06:55:30;97238.63;;;14.45;100.00
23616;BME280;11985;49.404;7.734;2022-10-16T06:57:32;97231.25;;;14.47;100.00
23616;BME280;11985;49.404;7.734;2022-10-16T06:59:33;97231.25;;;14.47;100.00
23616;BME280;11985;49.404;7.734;2022-10-16T07:01:35;97240.81;;;14.48;100.00
23616;BME280;11985;49.404;7.734;2022-10-16T07:03:37;97234.47;;;14.49;100.00
23616;BME280;11985;49.404;7.734;2022-10-16T07:05:39;97238.97;;;14.48;100.00
23616;BME280;11985;49.404;7.734;2022-10-16T07:07:41;97241.75;;;14.53;100.00
23616;BME280;11985;49.404;7.734;2022-10-16T07:09:42;97236.44;;;14.53;100.00
23616;BME280;11985;49.404;7.734;2022-10-16T07:11:45;97245.19;;;14.54;100.00
23616;BME280;11985;49.404;7.734;2022-10-16T07:13:48;97242.44;;;14.49;100.00
23616;BME280;11985;49.404;7.734;2022-10-16T07:15:50;97245.06;;;14.49;100.00
23616;BME280;11985;49.404;7.734;2022-10-16T07:17:51;97254.50;;;14.45;100.00
23616;BME280;11985;49.404;7.734;2022-10-16T07:19:53;97254.50;;;14.45;100.00
23616;BME280;11985;49.404;7.734;2022-10-16T07:21:55;97266.38;;;14.42;100.00
23616;BME280;11985;49.404;7.734;2022-10-16T07:23:57;97271.47;;;14.44;100.00
23616;BME280;11985;49.404;7.734;2022-10-16T07:25:59;97272.81;;;14.46;100.00
23616;BME280;11985;49.404;7.734;2022-10-16T07:28:03;97275.38;;;14.53;100.00
23616;BME280;11985;49.404;7.734;2022-10-16T07:30:05;97279.19;;;14.57;100.00
23616;BME280;11985;49.404;7.734;2022-10-16T07:32:07;97292.09;;;14.65;100.00
23616;BME280;11985;49.404;7.734;2022-10-16T07:34:09;97300.75;;;14.72;100.00
23616;BME280;11985;49.404;7.734;2022-10-16T07:36:12;97289.22;;;14.78;100.00
23616;BME280;11985;49.404;7.734;2022-10-16T07:38:15;97285.28;;;14.81;100.00
23616;BME280;11985;49.404;7.734;2022-10-16T07:40:19;97289.34;;;14.84;100.00
23616;BME280;11985;49.404;7.734;2022-10-16T07:42:23;97286.00;;;14.88;100.00
23616;BME280;11985;49.404;7.734;2022-10-16T07:44:28;97282.50;;;14.88;100.00
23616;BME280;11985;49.404;7.734;2022-10-16T07:46:30;97282.50;;;14.88;100.00
23616;BME280;11985;49.404;7.734;2022-10-16T07:48:34;97297.41;;;14.89;100.00
23616;BME280;11985;49.404;7.734;2022-10-16T07:50:35;97320.34;;;14.83;100.00
23616;BME280;11985;49.404;7.734;2022-10-16T07:52:38;97325.75;;;14.76;100.00
23616;BME280;11985;49.404;7.734;2022-10-16T07:54:39;97352.75;;;14.73;100.00
23616;BME280;11985;49.404;7.734;2022-10-16T07:56:41;97364.03;;;14.69;100.00
23616;BME280;11985;49.404;7.734;2022-10-16T07:58:43;97373.69;;;14.63;100.00
23616;BME280;11985;49.404;7.734;2022-10-16T08:00:47;97365.19;;;14.61;100.00
23616;BME280;11985;49.404;7.734;2022-10-16T08:02:49;97358.72;;;14.57;100.00
23616;BME280;11985;49.404;7.734;2022-10-16T08:04:53;97358.47;;;14.59;100.00
23616;BME280;11985;49.404;7.734;2022-10-16T08:06:58;97363.34;;;14.62;100.00
23616;BME280;11985;49.404;7.734;2022-10-16T08:09:15;97360.00;;;14.66;100.00
23616;BME280;11985;49.404;7.734;2022-10-16T08:11:18;97352.38;;;14.70;100.00
23616;BME280;11985;49.404;7.734;2022-10-16T08:13:20;97362.88;;;14.76;100.00
23616;BME280;11985;49.404;7.734;2022-10-16T08:15:22;97359.41;;;14.88;100.00
23616;BME280;11985;49.404;7.734;2022-10-16T08:17:26;97362.53;;;14.96;100.00
23616;BME280;11985;49.404;7.734;2022-10-16T08:19:31;97363.09;;;15.10;100.00
23616;BME280;11985;49.404;7.734;2022-10-16T08:21:35;97371.28;;;15.20;100.00
23616;BME280;11985;49.404;7.734;2022-10-16T08:23:38;97372.53;;;15.29;100.00
23616;BME280;11985;49.404;7.734;2022-10-16T08:25:40;97367.91;;;15.37;100.00
23616;BME280;11985;49.404;7.734;2022-10-16T08:27:41;97374.50;;;15.46;100.00
23616;BME280;11985;49.404;7.734;2022-10-16T08:29:45;97362.81;;;15.47;100.00
23616;BME280;11985;49.404;7.734;2022-10-16T08:31:46;97360.28;;;15.52;100.00
23616;BME280;11985;49.404;7.734;2022-10-16T08:33:57;97371.00;;;15.57;100.00
23616;BME280;11985;49.404;7.734;2022-10-16T08:35:58;97381.06;;;15.55;100.00
23616;BME280;11985;49.404;7.734;2022-10-16T08:38:02;97386.56;;;15.53;100.00
23616;BME280;11985;49.404;7.734;2022-10-16T08:40:06;97390.75;;;15.49;100.00
23616;BME280;11985;49.404;7.734;2022-10-16T08:42:18;97393.31;;;15.44;100.00
23616;BME280;11985;49.404;7.734;2022-10-16T08:47:03;97405.78;;;15.44;100.00
23616;BME280;11985;49.404;7.734;2022-10-16T08:49:16;97401.28;;;15.44;100.00
23616;BME280;11985;49.404;7.734;2022-10-16T08:51:26;97393.06;;;15.46;100.00
23616;BME280;11985;49.404;7.734;2022-10-16T08:53:40;97402.06;;;15.45;100.00
23616;BME280;11985;49.404;7.734;2022-10-16T08:55:46;97400.66;;;15.54;100.00
23616;BME280;11985;49.404;7.734;2022-10-16T08:57:51;97403.78;;;15.63;100.00
23616;BME280;11985;49.404;7.734;2022-10-16T08:59:59;97402.97;;;15.62;100.00
23616;BME280;11985;49.404;7.734;2022-10-16T09:02:02;97399.41;;;15.68;100.00
23616;BME280;11985;49.404;7.734;2022-10-16T09:07:01;97398.34;;;15.69;100.00
23616;BME280;11985;49.404;7.734;2022-10-16T09:11:36;97406.28;;;15.81;100.00
23616;BME280;11985;49.404;7.734;2022-10-16T09:13:50;97414.69;;;15.90;100.00
23616;BME280;11985;49.404;7.734;2022-10-16T09:16:01;97410.59;;;15.99;100.00
23616;BME280;11985;49.404;7.734;2022-10-16T09:18:12;97420.69;;;15.97;100.00
23616;BME280;11985;49.404;7.734;2022-10-16T09:20:33;97429.19;;;16.10;100.00
23616;BME280;11985;49.404;7.734;2022-10-16T09:22:42;97420.47;;;16.15;100.00
23616;BME280;11985;49.404;7.734;2022-10-16T09:24:46;97426.34;;;16.29;100.00
23616;BME280;11985;49.404;7.734;2022-10-16T09:26:48;97421.06;;;16.46;100.00
23616;BME280;11985;49.404;7.734;2022-10-16T09:28:52;97419.13;;;16.58;100.00
23616;BME280;11985;49.404;7.734;2022-10-16T09:30:54;97416.56;;;16.63;100.00
23616;BME280;11985;49.404;7.734;2022-10-16T09:32:58;97422.63;;;16.75;100.00
23616;BME280;11985;49.404;7.734;2022-10-16T09:35:00;97427.50;;;16.78;100.00
23616;BME280;11985;49.404;7.734;2022-10-16T09:37:09;97430.41;;;16.77;100.00
23616;BME280;11985;49.404;7.734;2022-10-16T09:39:18;97434.41;;;16.79;100.00
23616;BME280;11985;49.404;7.734;2022-10-16T09:41:21;97435.47;;;16.78;100.00
23616;BME280;11985;49.404;7.734;2022-10-16T09:43:34;97434.41;;;16.79;100.00
23616;BME280;11985;49.404;7.734;2022-10-16T09:45:37;97436.03;;;16.80;100.00
23616;BME280;11985;49.404;7.734;2022-10-16T09:47:43;97441.34;;;16.80;100.00
23616;BME280;11985;49.404;7.734;2022-10-16T09:49:53;97441.97;;;16.87;100.00
23616;BME280;11985;49.404;7.734;2022-10-16T09:52:04;97447.47;;;16.98;100.00
23616;BME280;11985;49.404;7.734;2022-10-16T09:54:15;97444.81;;;16.98;100.00
23616;BME280;11985;49.404;7.734;2022-10-16T09:56:22;97447.47;;;16.98;100.00
23616;BME280;11985;49.404;7.734;2022-10-16T09:58:26;97442.31;;;16.91;100.00
23616;BME280;11985;49.404;7.734;2022-10-16T10:00:27;97448.34;;;16.86;100.00
23616;BME280;11985;49.404;7.734;2022-10-16T10:02:35;97446.50;;;16.87;100.00
23616;BME280;11985;49.404;7.734;2022-10-16T10:04:49;97451.69;;;16.94;100.00
23616;BME280;11985;49.404;7.734;2022-10-16T10:06:53;97452.25;;;16.96;100.00
23616;BME280;11985;49.404;7.734;2022-10-16T10:09:05;97452.31;;;17.01;100.00
23616;BME280;11985;49.404;7.734;2022-10-16T10:11:10;97451.34;;;17.07;100.00
23616;BME280;11985;49.404;7.734;2022-10-16T10:13:17;97446.50;;;17.04;100.00
23616;BME280;11985;49.404;7.734;2022-10-16T10:15:21;97451.28;;;17.02;100.00
23616;BME280;11985;49.404;7.734;2022-10-16T10:17:25;97448.53;;;16.97;100.00
23616;BME280;11985;49.404;7.734;2022-10-16T10:19:27;97452.78;;;16.98;100.00
23616;BME280;11985;49.404;7.734;2022-10-16T10:21:33;97456.50;;;16.97;100.00
23616;BME280;11985;49.404;7.734;2022-10-16T10:23:35;97454.09;;;16.95;100.00
23616;BME280;11985;49.404;7.734;2022-10-16T10:25:42;97461.91;;;17.02;100.00
23616;BME280;11985;49.404;7.734;2022-10-16T10:28:17;97455.63;;;17.08;100.00
23616;BME280;11985;49.404;7.734;2022-10-16T10:30:23;97458.28;;;17.08;100.00
23616;BME280;11985;49.404;7.734;2022-10-16T10:32:35;97465.28;;;17.14;100.00
23616;BME280;11985;49.404;7.734;2022-10-16T10:34:51;97461.38;;;17.17;100.00
23616;BME280;11985;49.404;7.734;2022-10-16T10:37:00;97460.78;;;17.14;100.00
23616;BME280;11985;49.404;7.734;2022-10-16T10:39:08;97460.31;;;17.18;100.00
23616;BME280;11985;49.404;7.734;2022-10-16T10:41:32;97461.28;;;17.28;100.00
23616;BME280;11985;49.404;7.734;2022-10-16T10:43:47;97464.81;;;17.34;100.00
23616;BME280;11985;49.404;7.734;2022-10-16T10:45:58;97469.72;;;17.42;100.00
23616;BME280;11985;49.404;7.734;2022-10-16T10:48:17;97468.25;;;17.51;100.00
23616;BME280;11985;49.404;7.734;2022-10-16T10:50:25;97472.28;;;17.54;100.00
23616;BME280;11985;49.404;7.734;2022-10-16T10:52:41;97471.16;;;17.50;100.00
23616;BME280;11985;49.404;7.734;2022-10-16T10:54:49;97474.31;;;17.47;100.00
23616;BME280;11985;49.404;7.734;2022-10-16T10:56:57;97471.38;;;17.48;100.00
23616;BME280;11985;49.404;7.734;2022-10-16T10:59:08;97463.72;;;17.52;100.00